Idaville, Indiana
Current Conditions -  °F | °C
As of 2:15 PM on Friday 31 Oct 2014 (Local Time) from KMCX Reporting Station
Light Rain Light Rain  
Wind Chill: -5°   Ceiling: 1100
Heat Index:   Visibility: 7mi
Dew Point:   Wind: 26mph
Humidity: 93%   Direction: 320°NW
Pressure: 30.01"   Gusts: 35mph
Location:  40.76°N, 86.65°W
Report Text: KMCX 311815Z AUTO 32023G30KT 7SM -RA BKN011 BKN017 OVC024 02/01 A3001 RMK AO2 T00200010
Loading
Personal Weather Stations






























Interactive Weather Map
Tropical Storm Tracking
New forecast layout! Learn more

10-Day Weather Forecast

Advertisements
Track Severe Weather on mobile